Time;durP1;ratioP1;P1;durP2;ratioP2;P2;SDS_P1;SDS_P2;PMS_P1;PMS_P2;Temp;Humidity;BMP_temperature;BMP_pressure;BME280_temperature;BME280_humidity;BME280_pressure;Samples;Min_cycle;Max_cycle;Signal;HPM_P1;HPM_P2
2023/10/17 00:02:35;;;;;;;7.82;3.28;;;8.40;99.90;;;;;;4211903;28;20150;-81
2023/10/17 00:04:38;;;;;;;8.55;4.13;;;8.40;99.90;;;;;;4216995;28;20048;-81
2023/10/17 00:06:39;;;;;;;9.25;3.33;;;8.40;99.90;;;;;;4216487;28;20051;-81
2023/10/17 00:08:41;;;;;;;7.10;3.70;;;8.40;99.90;;;;;;4216830;28;20408;-82
2023/10/17 00:10:45;;;;;;;9.93;4.85;;;8.40;99.90;;;;;;4216930;28;20072;-81
2023/10/17 00:12:50;;;;;;;6.32;3.65;;;8.40;99.90;;;;;;4222666;28;20048;-82
2023/10/17 00:16:55;;;;;;;8.73;3.60;;;8.40;99.90;;;;;;4216369;28;20804;-81
2023/10/17 00:19:04;;;;;;;7.40;3.53;;;9.30;99.90;;;;;;4216079;28;20040;-81
2023/10/17 00:21:20;;;;;;;;;;;8.70;99.90;;;;;;4217079;28;20044;-81
2023/10/17 00:23:21;;;;;;;6.25;3.53;;;8.40;99.90;;;;;;4216574;28;19920;-81
2023/10/17 00:25:25;;;;;;;4.57;2.90;;;8.50;99.90;;;;;;4198365;28;20083;-81
2023/10/17 00:27:26;;;;;;;8.15;3.58;;;8.80;99.90;;;;;;4216084;28;20123;-82
2023/10/17 00:29:27;;;;;;;12.73;3.80;;;8.80;99.90;;;;;;4216435;28;20492;-82
2023/10/17 00:31:27;;;;;;;7.45;2.95;;;7.90;99.90;;;;;;4229514;28;20051;-81
2023/10/17 00:33:28;;;;;;;9.20;3.25;;;8.40;99.90;;;;;;4233327;28;20051;-81
2023/10/17 00:35:36;;;;;;;7.47;3.70;;;8.40;99.90;;;;;;4232787;28;20044;-81
2023/10/17 00:37:38;;;;;;;6.35;3.08;;;8.50;99.90;;;;;;4231918;28;20075;-81
2023/10/17 00:39:38;;;;;;;11.30;4.03;;;8.70;99.90;;;;;;4231715;28;20059;-81
2023/10/17 00:43:59;;;;;;;6.10;3.00;;;8.40;99.90;;;;;;4232465;28;20176;-82
2023/10/17 00:46:00;;;;;;;9.65;3.83;;;8.40;99.90;;;;;;4231781;28;20494;-81
2023/10/17 00:48:03;;;;;;;7.00;2.97;;;8.40;99.90;;;;;;4230275;28;20052;-81
2023/10/17 00:50:13;;;;;;;9.07;3.28;;;8.40;99.90;;;;;;4236969;27;20068;-81
2023/10/17 00:52:19;;;;;;;5.82;2.97;;;8.40;99.90;;;;;;4214691;28;20126;-82
2023/10/17 00:54:20;;;;;;;7.50;4.05;;;8.40;99.90;;;;;;4249981;27;20127;-81
2023/10/17 00:56:21;;;;;;;6.97;3.22;;;8.40;99.90;;;;;;4249904;27;20035;-82
2023/10/17 00:58:22;;;;;;;8.60;3.00;;;9.10;99.90;;;;;;4248885;27;20555;-81
2023/10/17 01:00:23;;;;;;;5.90;3.38;;;8.50;99.90;;;;;;4249542;27;20122;-82
2023/10/17 01:02:29;;;;;;;5.53;2.45;;;8.40;99.90;;;;;;4231596;28;20044;-82
2023/10/17 01:04:32;;;;;;;6.32;2.80;;;8.40;99.90;;;;;;4225482;28;20039;-81
2023/10/17 01:06:37;;;;;;;7.22;3.38;;;8.40;99.90;;;;;;4249028;27;20039;-81
2023/10/17 01:08:44;;;;;;;7.63;2.55;;;8.40;99.90;;;;;;4231325;28;20043;-81
2023/10/17 01:10:47;;;;;;;10.63;3.13;;;8.40;99.90;;;;;;4249526;27;20047;-81
2023/10/17 01:12:53;;;;;;;6.65;2.88;;;8.70;99.90;;;;;;4249719;27;20418;-81
2023/10/17 01:14:56;;;;;;;5.60;2.72;;;8.40;99.90;;;;;;4231264;28;20050;-81
2023/10/17 01:16:57;;;;;;;5.85;2.88;;;8.40;99.90;;;;;;4231431;28;20040;-81
2023/10/17 01:19:03;;;;;;;9.82;3.05;;;8.40;99.90;;;;;;4230609;28;20040;-81
2023/10/17 01:21:05;;;;;;;10.35;3.00;;;9.60;99.90;;;;;;4230117;28;20035;-82
2023/10/17 01:23:07;;;;;;;7.97;3.95;;;9.10;99.90;;;;;;4235645;27;20057;-81
2023/10/17 01:25:21;;;;;;;8.43;3.80;;;9.20;99.90;;;;;;4232313;28;20504;-81
2023/10/17 01:27:22;;;;;;;7.97;3.65;;;8.30;99.90;;;;;;4232105;28;20039;-81
2023/10/17 01:29:23;;;;;;;8.00;3.40;;;8.30;99.90;;;;;;4214366;28;20051;-82
2023/10/17 01:31:25;;;;;;;4.85;2.80;;;8.30;99.90;;;;;;4232400;28;20480;-81
2023/10/17 01:33:29;;;;;;;5.40;2.80;;;8.20;99.90;;;;;;4231946;28;20110;-82
2023/10/17 01:35:30;;;;;;;7.30;2.90;;;8.20;99.90;;;;;;4232319;28;20044;-81
2023/10/17 01:37:30;;;;;;;3.85;2.13;;;7.90;99.90;;;;;;4233194;27;20039;-81
2023/10/17 01:39:31;;;;;;;8.27;2.53;;;9.40;99.90;;;;;;4249084;27;20140;-81
2023/10/17 01:41:32;;;;;;;6.85;2.35;;;8.20;99.90;;;;;;4249171;27;20047;-82
2023/10/17 01:43:40;;;;;;;4.60;1.98;;;8.20;99.90;;;;;;4248833;27;20035;-81
2023/10/17 01:45:42;;;;;;;6.15;1.92;;;8.60;99.90;;;;;;4249205;27;20421;-82
2023/10/17 01:47:43;;;;;;;5.40;2.30;;;7.90;99.90;;;;;;4245046;27;20376;-82
2023/10/17 01:49:44;;;;;;;7.10;2.55;;;8.20;99.90;;;;;;4248457;27;20101;-81
2023/10/17 01:51:48;;;;;;;8.00;2.70;;;8.30;99.90;;;;;;4230738;28;20039;-82
2023/10/17 01:53:50;;;;;;;7.22;2.30;;;8.90;99.90;;;;;;4230827;28;20062;-81
2023/10/17 01:56:06;;;;;;;5.50;2.55;;;8.30;99.90;;;;;;4249278;27;20483;-81
2023/10/17 01:58:07;;;;;;;8.00;2.60;;;8.30;99.90;;;;;;4249221;27;20043;-81
2023/10/17 02:00:16;;;;;;;7.85;2.85;;;8.30;99.90;;;;;;4249216;27;20047;-82
2023/10/17 02:02:18;;;;;;;4.63;2.63;;;8.30;99.90;;;;;;4248401;27;20047;-81
2023/10/17 02:04:18;;;;;;;4.97;2.40;;;8.30;99.90;;;;;;4243073;27;20425;-82
2023/10/17 02:06:22;;;;;;;6.15;2.50;;;8.30;99.90;;;;;;4213700;28;20055;-82
2023/10/17 02:08:23;;;;;;;3.92;2.33;;;8.90;99.90;;;;;;4245604;27;20058;-81
2023/10/17 02:10:25;;;;;;;5.93;2.65;;;8.30;99.90;;;;;;4231688;28;20058;-81
2023/10/17 02:12:25;;;;;;;4.95;2.03;;;8.30;99.90;;;;;;4231652;28;20527;-81
2023/10/17 02:14:26;;;;;;;4.13;2.15;;;8.30;99.90;;;;;;4231730;28;20044;-81
2023/10/17 02:16:29;;;;;;;5.60;2.72;;;8.30;99.90;;;;;;4213621;28;20048;-81
2023/10/17 02:18:29;;;;;;;5.20;1.98;;;8.20;99.90;;;;;;4231185;28;20150;-82
2023/10/17 02:20:30;;;;;;;4.40;2.17;;;8.20;99.90;;;;;;4231780;28;20096;-81
2023/10/17 02:22:31;;;;;;;2.92;1.70;;;8.20;99.90;;;;;;4231500;28;20118;-82
2023/10/17 02:24:32;;;;;;;4.90;1.92;;;8.10;99.90;;;;;;4242176;27;20046;-81
2023/10/17 02:26:42;;;;;;;4.78;1.90;;;8.60;99.90;;;;;;4248569;27;20043;-82
2023/10/17 02:28:49;;;;;;;4.40;1.88;;;8.80;99.90;;;;;;4248654;27;20399;-82
2023/10/17 02:30:49;;;;;;;7.07;1.85;;;8.00;99.90;;;;;;4248067;27;20050;-81
2023/10/17 02:32:56;;;;;;;5.88;1.80;;;7.90;99.90;;;;;;4213799;28;20526;-81
2023/10/17 02:34:57;;;;;;;5.80;2.35;;;7.60;99.90;;;;;;4248793;27;20113;-82
2023/10/17 02:37:01;;;;;;;4.63;1.90;;;7.80;99.90;;;;;;4248680;27;20503;-81
2023/10/17 02:39:04;;;;;;;4.85;1.85;;;7.70;99.90;;;;;;4228350;28;20036;-82
2023/10/17 02:41:09;;;;;;;6.30;2.10;;;7.70;99.90;;;;;;4235096;28;20399;-81
2023/10/17 02:43:12;;;;;;;7.38;2.25;;;7.70;99.90;;;;;;4213045;28;20059;-81
2023/10/17 02:45:13;;;;;;;3.85;2.03;;;7.70;99.90;;;;;;4231682;28;20046;-82
2023/10/17 02:47:15;;;;;;;6.90;2.42;;;7.70;99.90;;;;;;4231439;28;20039;-82
2023/10/17 02:49:16;;;;;;;6.30;2.20;;;7.60;99.90;;;;;;4216906;28;20616;-81
2023/10/17 02:53:24;;;;;;;4.05;2.10;;;8.10;99.90;;;;;;4248314;28;20130;-81
2023/10/17 02:55:26;;;;;;;4.80;2.25;;;7.50;99.90;;;;;;4248229;28;20040;-81
2023/10/17 02:57:32;;;;;;;14.35;3.60;;;7.80;99.90;;;;;;4248127;28;20039;-81
2023/10/17 02:59:35;;;;;;;3.00;1.75;;;7.60;99.90;;;;;;4248359;28;20039;-81
2023/10/17 03:01:42;;;;;;;2.63;1.60;;;8.00;99.90;;;;;;4248591;28;20061;-81
2023/10/17 03:03:43;;;;;;;4.65;1.70;;;7.40;99.90;;;;;;4248470;28;20039;-81
2023/10/17 03:05:50;;;;;;;4.80;2.00;;;7.40;99.90;;;;;;4229499;28;20403;-81
2023/10/17 03:07:51;;;;;;;4.57;1.85;;;7.40;99.90;;;;;;4245071;28;20078;-81
2023/10/17 03:09:52;;;;;;;3.38;1.67;;;8.10;99.90;;;;;;4230904;28;20503;-81
2023/10/17 03:12:50;;;;;;;3.60;2.20;;;7.20;99.90;;;;;;4248395;28;20035;-81
2023/10/17 03:14:33;;;;;;;3.30;1.45;;;7.20;99.90;;;;;;4236599;28;20066;-81
2023/10/17 03:16:39;;;;;;;3.20;1.75;;;7.20;99.90;;;;;;4248583;28;20039;-81
2023/10/17 03:18:40;;;;;;;3.22;1.77;;;7.10;99.90;;;;;;4248456;28;20391;-81
2023/10/17 03:20:42;;;;;;;6.70;1.92;;;7.10;99.90;;;;;;4248272;28;20158;-81
2023/10/17 03:22:42;;;;;;;4.65;2.00;;;7.10;99.90;;;;;;4250228;27;20067;-81
2023/10/17 03:24:44;;;;;;;4.57;2.25;;;7.10;99.90;;;;;;4251481;27;20398;-81
2023/10/17 03:27:07;;;;;;;7.05;1.75;;;7.00;99.90;;;;;;4246718;27;20051;-81
2023/10/17 03:29:18;;;;;;;3.50;1.65;;;7.00;99.90;;;;;;4231160;28;20088;-81
2023/10/17 03:31:22;;;;;;;4.50;1.90;;;6.90;99.90;;;;;;4252391;27;20410;-81
2023/10/17 03:33:26;;;;;;;9.77;1.85;;;7.70;99.90;;;;;;4228191;28;20048;-81
2023/10/17 03:35:29;;;;;;;3.85;1.67;;;6.90;99.90;;;;;;4216462;28;20044;-81
2023/10/17 03:37:33;;;;;;;5.45;2.10;;;6.90;99.90;;;;;;4216628;28;20075;-80
2023/10/17 03:39:50;;;;;;;3.40;1.85;;;6.90;99.90;;;;;;4216255;28;20048;-80
2023/10/17 03:41:57;;;;;;;3.60;2.10;;;6.90;99.90;;;;;;4234050;28;20054;-81
2023/10/17 03:44:01;;;;;;;3.58;1.85;;;7.60;99.90;;;;;;4240333;27;20039;-80
2023/10/17 03:46:05;;;;;;;3.83;2.13;;;6.90;99.90;;;;;;4233102;28;20051;-81
2023/10/17 03:48:14;;;;;;;3.75;2.08;;;6.90;99.90;;;;;;4251181;27;20046;-80
2023/10/17 03:52:39;;;;;;;5.45;2.13;;;6.90;99.90;;;;;;4213798;28;20054;-81
2023/10/17 03:54:43;;;;;;;4.63;2.28;;;7.00;99.90;;;;;;4234113;28;20388;-80
2023/10/17 03:56:49;;;;;;;7.65;2.83;;;7.00;99.90;;;;;;4234329;28;20075;-80
2023/10/17 04:01:00;;;;;;;5.43;2.10;;;8.20;99.90;;;;;;4234037;28;20526;-81
2023/10/17 04:03:08;;;;;;;6.28;2.10;;;7.10;99.90;;;;;;4232430;28;20075;-81
2023/10/17 04:05:16;;;;;;;4.22;1.90;;;7.10;99.90;;;;;;4215498;28;20047;-80
2023/10/17 04:07:19;;;;;;;6.65;2.10;;;7.60;99.90;;;;;;4220149;28;20051;-81
2023/10/17 04:13:34;;;;;;;5.70;2.35;;;7.20;99.90;;;;;;4215693;28;20056;-80
2023/10/17 04:15:34;;;;;;;6.63;2.28;;;7.20;99.90;;;;;;4216804;28;20079;-80
2023/10/17 04:17:39;;;;;;;5.63;2.40;;;7.20;99.90;;;;;;4217094;28;20503;-80
2023/10/17 04:19:39;;;;;;;4.82;2.25;;;7.20;99.90;;;;;;4216729;28;20052;-80
2023/10/17 04:21:51;;;;;;;4.00;2.38;;;7.30;99.90;;;;;;4217319;28;20076;-80
2023/10/17 04:23:53;;;;;;;4.85;2.25;;;7.40;99.90;;;;;;4231093;27;20043;-80
2023/10/17 04:25:55;;;;;;;4.93;2.00;;;7.20;99.90;;;;;;4229577;28;20043;-80
2023/10/17 04:27:58;;;;;;;7.13;2.53;;;7.30;99.90;;;;;;4233399;28;20035;-80
2023/10/17 04:29:59;;;;;;;5.53;2.95;;;7.30;99.90;;;;;;4233894;28;20119;-81
2023/10/17 04:32:13;;;;;;;7.10;2.83;;;7.30;99.90;;;;;;4250752;28;20048;-79
2023/10/17 04:34:26;;;;;;;3.10;2.00;;;7.20;99.90;;;;;;4242443;28;20046;-81
2023/10/17 04:36:28;;;;;;;5.05;2.72;;;7.30;99.90;;;;;;4232188;28;20043;-80
2023/10/17 04:38:36;;;;;;;7.15;2.45;;;7.30;99.90;;;;;;4233701;27;20047;-81
2023/10/17 04:40:38;;;;;;;4.27;2.20;;;7.30;99.90;;;;;;4232398;28;20100;-81
2023/10/17 04:42:56;;;;;;;5.68;2.58;;;7.30;99.90;;;;;;4228547;28;20285;-80
2023/10/17 04:45:05;;;;;;;6.25;2.00;;;7.30;99.90;;;;;;4233159;28;20048;-81
2023/10/17 04:49:24;;;;;;;3.78;2.00;;;7.30;99.90;;;;;;4233517;28;20480;-81
2023/10/17 04:51:31;;;;;;;3.85;1.92;;;8.60;99.90;;;;;;4243653;27;20472;-81
2023/10/17 04:53:38;;;;;;;4.65;2.10;;;7.30;99.90;;;;;;4250032;27;20035;-81
2023/10/17 04:56:00;;;;;;;5.57;2.33;;;7.30;99.90;;;;;;4250711;27;20043;-81
2023/10/17 04:58:30;;;;;;;3.67;2.30;;;7.30;99.90;;;;;;4250000;27;20046;-81
2023/10/17 05:01:11;;;;;;;4.05;2.05;;;7.40;99.90;;;;;;4246848;27;21361;-81
2023/10/17 05:03:04;;;;;;;4.40;2.17;;;7.00;99.90;;;;;;4232454;28;20040;-80
2023/10/17 05:07:14;;;;;;;4.82;2.40;;;7.30;99.90;;;;;;4233175;28;20119;-82
2023/10/17 06:16:51;;;;;;;9.93;3.50;;;8.00;99.90;;;;;;4248560;27;20445;-82
2023/10/17 06:18:58;;;;;;;4.32;3.08;;;7.60;99.90;;;;;;4235309;27;20054;-82
2023/10/17 06:23:24;;;;;;;5.20;2.97;;;7.70;99.90;;;;;;4232020;28;20492;-82
2023/10/17 06:31:57;;;;;;;6.32;3.65;;;7.70;99.90;;;;;;4248892;27;20047;-82
2023/10/17 06:34:00;;;;;;;6.00;3.28;;;8.30;99.90;;;;;;4248809;27;20078;-81
2023/10/17 06:36:13;;;;;;;7.13;3.65;;;7.70;99.90;;;;;;4248690;27;20436;-82
2023/10/17 06:38:16;;;;;;;9.13;3.60;;;7.70;99.90;;;;;;4248662;27;20093;-82
2023/10/17 06:40:17;;;;;;;8.05;3.90;;;7.90;99.90;;;;;;4248187;28;20035;-81
2023/10/17 06:42:29;;;;;;;6.38;3.45;;;8.60;99.90;;;;;;4248712;28;20047;-81
2023/10/17 06:44:30;;;;;;;9.10;3.63;;;8.20;99.90;;;;;;4248625;27;20039;-82
2023/10/17 06:47:17;;;;;;;9.38;3.13;;;8.70;99.90;;;;;;4248581;28;20530;-82
2023/10/17 06:48:57;;;;;;;6.68;2.95;;;8.50;99.90;;;;;;4236656;28;20050;-82
2023/10/17 06:53:27;;;;;;;8.68;2.97;;;8.00;99.90;;;;;;4230313;28;20058;-81
2023/10/17 06:55:43;;;;;;;14.52;2.78;;;7.80;99.90;;;;;;4248431;28;20186;-82
2023/10/17 06:57:43;;;;;;;10.10;3.30;;;7.90;99.90;;;;;;4250828;27;20106;-81
2023/10/17 06:59:51;;;;;;;6.15;2.97;;;7.90;99.90;;;;;;4251562;27;20087;-81
2023/10/17 07:02:10;;;;;;;3.75;2.30;;;7.90;99.90;;;;;;4251879;27;20066;-81
2023/10/17 07:04:11;;;;;;;6.05;2.60;;;7.90;99.90;;;;;;4251955;27;20099;-81
2023/10/17 07:06:16;;;;;;;7.57;2.53;;;8.00;99.90;;;;;;4251862;27;20039;-82
2023/10/17 07:08:22;;;;;;;7.45;2.25;;;8.00;99.90;;;;;;4251422;27;20043;-81
2023/10/17 07:12:30;;;;;;;6.22;2.58;;;8.10;99.90;;;;;;4233786;28;20070;-82
2023/10/17 07:14:30;;;;;;;12.57;3.08;;;8.00;99.90;;;;;;4251951;27;20471;-81
2023/10/17 07:16:41;;;;;;;6.15;2.70;;;8.20;99.90;;;;;;4251916;27;20042;-82
2023/10/17 07:18:51;;;;;;;4.65;2.72;;;9.00;99.90;;;;;;4233205;28;20127;-81
2023/10/17 07:23:15;;;;;;;5.55;2.72;;;8.10;99.90;;;;;;4251545;27;20046;-82
2023/10/17 07:25:19;;;;;;;6.80;2.55;;;8.10;99.90;;;;;;4233506;28;20052;-81
2023/10/17 07:27:26;;;;;;;5.85;2.72;;;8.20;99.90;;;;;;4251258;27;20092;-81
2023/10/17 07:29:33;;;;;;;6.50;2.63;;;8.20;99.90;;;;;;4251606;27;20050;-81
2023/10/17 07:31:34;;;;;;;6.97;2.47;;;8.60;99.90;;;;;;4250949;27;20050;-81
2023/10/17 07:33:34;;;;;;;6.53;2.13;;;8.30;99.90;;;;;;4251552;27;20043;-82
2023/10/17 07:35:37;;;;;;;5.93;3.30;;;8.40;99.90;;;;;;4232933;28;20039;-84
2023/10/17 07:38:00;;;;;;;8.23;2.97;;;9.40;99.90;;;;;;4214566;28;20079;-85
2023/10/17 07:40:16;;;;;;;4.38;2.13;;;8.30;99.90;;;;;;4233793;27;20036;-83
2023/10/17 07:42:29;;;;;;;5.95;2.17;;;8.90;99.90;;;;;;4234002;28;20047;-83
2023/10/17 07:44:34;;;;;;;7.03;2.15;;;8.60;99.90;;;;;;4233589;28;20411;-83
2023/10/17 07:46:38;;;;;;;5.38;2.13;;;8.60;99.90;;;;;;4233558;28;20048;-82
2023/10/17 07:48:39;;;;;;;4.22;2.20;;;8.70;99.90;;;;;;4215448;28;20052;-83
2023/10/17 07:50:40;;;;;;;6.90;1.88;;;10.00;99.90;;;;;;4219866;28;20122;-83
2023/10/17 07:52:44;;;;;;;6.78;2.28;;;8.90;99.90;;;;;;4232729;28;20084;-83
2023/10/17 07:54:55;;;;;;;6.75;2.15;;;8.90;99.90;;;;;;4232730;28;20530;-83
2023/10/17 07:56:58;;;;;;;7.85;2.25;;;8.50;99.90;;;;;;4242045;28;20039;-83
2023/10/17 07:59:08;;;;;;;4.28;2.20;;;9.30;99.90;;;;;;4248956;28;20051;-82
2023/10/17 08:01:16;;;;;;;6.88;2.15;;;9.30;99.90;;;;;;4249475;28;20039;-83
2023/10/17 08:03:17;;;;;;;7.18;2.20;;;9.20;99.90;;;;;;4249698;28;20081;-83
2023/10/17 08:05:26;;;;;;;6.05;2.38;;;9.40;99.90;;;;;;4249778;28;20110;-83
2023/10/17 08:07:29;;;;;;;11.63;2.38;;;9.70;99.90;;;;;;4230763;28;20126;-83
2023/10/17 08:09:36;;;;;;;4.25;2.22;;;10.40;99.90;;;;;;4249413;28;20092;-83
2023/10/17 08:11:37;;;;;;;5.15;2.63;;;9.30;99.90;;;;;;4249502;28;20070;-83
2023/10/17 08:13:38;;;;;;;3.88;2.25;;;9.30;99.90;;;;;;4212135;28;20052;-84
2023/10/17 08:15:48;;;;;;;8.88;2.25;;;9.30;99.90;;;;;;4232408;28;20046;-83
2023/10/17 08:17:49;;;;;;;7.32;2.10;;;9.20;99.90;;;;;;4232599;28;20043;-84
2023/10/17 08:24:05;;;;;;;5.22;2.10;;;13.00;99.90;;;;;;4217950;28;20036;-83
2023/10/17 08:26:10;;;;;;;3.80;1.83;;;14.00;99.90;;;;;;4241299;28;20121;-83
2023/10/17 08:28:33;;;;;;;5.40;1.98;;;;;;;;;;4249418;28;20054;-83
2023/10/17 08:30:38;;;;;;;4.72;2.13;;;15.10;99.90;;;;;;4248278;28;20050;-84
2023/10/17 08:32:39;;;;;;;5.90;2.25;;;;;;;;;;4236886;28;20047;-84
2023/10/17 08:34:44;;;;;;;6.32;1.95;;;16.30;99.90;;;;;;4231683;28;20050;-84
2023/10/17 08:36:48;;;;;;;5.63;2.08;;;;;;;;;;4244582;28;20047;-84
2023/10/17 08:38:49;;;;;;;10.15;2.22;;;;;;;;;;4248774;28;20096;-84
2023/10/17 08:40:54;;;;;;;6.40;2.30;;;;;;;;;;4230972;28;20056;-84
2023/10/17 08:42:56;;;;;;;5.55;1.90;;;;;;;;;;4234191;28;20410;-84
2023/10/17 08:45:04;;;;;;;6.03;2.13;;;;;;;;;;4232139;28;20550;-84
2023/10/17 08:47:05;;;;;;;6.20;2.28;;;;;;;;;;4231817;28;20047;-84
2023/10/17 08:49:10;;;;;;;3.35;1.50;;;;;;;;;;4246136;28;20403;-83
2023/10/17 08:51:14;;;;;;;5.30;1.35;;;;;;;;;;4211101;27;1081023;-83
2023/10/17 08:53:23;;;;;;;5.47;1.90;;;;;;;;;;4231573;28;20047;-83
2023/10/17 08:55:24;;;;;;;4.72;1.42;;;;;;;;;;4250007;27;20501;-84
2023/10/17 08:57:26;;;;;;;5.57;1.50;;;;;;;;;;4249826;27;20398;-83
2023/10/17 09:02:00;;;;;;;4.80;1.27;;;;;;;;;;4249887;27;20539;-84
2023/10/17 09:04:04;;;;;;;4.55;1.42;;;;;;;;;;4249714;27;20492;-84
2023/10/17 09:06:10;;;;;;;4.05;1.52;;;;;;;;;;4231342;28;20047;-83
2023/10/17 09:08:11;;;;;;;5.97;1.75;;;;;;;;;;4231382;28;20046;-83
2023/10/17 09:10:36;;;;;;;5.53;1.88;;;;;;;;;;4214573;28;20086;-83
2023/10/17 09:12:42;;;;;;;5.10;1.40;;;;;;;;;;4245279;27;20101;-83
2023/10/17 09:14:48;;;;;;;3.05;1.45;;;;;;;;;;4249397;27;20061;-83
2023/10/17 09:17:28;;;;;;;9.02;1.73;;;;;;;;;;4248630;27;20082;-84
2023/10/17 09:19:38;;;;;;;6.65;1.42;;;;;;;;;;4231463;28;20088;-84
2023/10/17 09:21:44;;;;;;;2.63;1.00;;;;;;;;;;4232408;28;20050;-84
2023/10/17 09:23:45;;;;;;;2.63;1.00;;;;;;;;;;4231934;28;20032;-84
2023/10/17 09:25:52;;;;;;;5.10;0.77;;;;;;;;;;4232138;28;20040;-84
2023/10/17 09:27:54;;;;;;;5.47;1.30;;;;;;;;;;4214089;28;20119;-84
2023/10/17 09:29:57;;;;;;;2.15;0.73;;;;;;;;;;4247748;27;20035;-83
2023/10/17 09:32:00;;;;;;;3.35;0.85;;;;;;;;;;4244336;27;20047;-83
2023/10/17 09:34:05;;;;;;;5.10;0.93;;;;;;;;;;4231957;28;20047;-83
2023/10/17 09:36:06;;;;;;;4.82;0.68;;;;;;;;;;4243661;27;20098;-83
2023/10/17 09:38:08;;;;;;;2.28;0.75;;;;;;;;;;4213960;28;20121;-83
2023/10/17 09:40:14;;;;;;;4.38;0.80;;;16.90;99.90;;;;;;4213455;28;20507;-83
2023/10/17 09:42:15;;;;;;;1.42;0.85;;;21.40;99.90;;;;;;4231813;28;20047;-83
2023/10/17 09:44:16;;;;;;;1.75;0.73;;;;;;;;;;4231617;28;20050;-83
2023/10/17 09:46:21;;;;;;;1.90;0.90;;;21.20;99.90;;;;;;4213483;28;20640;-82
2023/10/17 09:48:29;;;;;;;2.70;1.10;;;20.00;99.90;;;;;;4213341;28;20056;-83
2023/10/17 09:50:34;;;;;;;3.47;1.00;;;19.60;99.90;;;;;;4231471;28;20081;-82
2023/10/17 09:52:35;;;;;;;4.18;1.52;;;19.10;99.90;;;;;;4231633;28;20070;-83
2023/10/17 09:54:40;;;;;;;3.60;1.58;;;18.80;99.90;;;;;;4231381;28;20031;-83
2023/10/17 09:56:43;;;;;;;2.40;1.20;;;18.40;99.90;;;;;;4234507;27;20040;-83
2023/10/17 09:58:48;;;;;;;7.53;1.20;;;18.30;99.90;;;;;;4231177;28;20048;-83
2023/10/17 10:00:53;;;;;;;6.30;1.23;;;18.40;99.90;;;;;;4231169;28;20093;-83
2023/10/17 10:02:55;;;;;;;3.88;1.42;;;18.60;99.90;;;;;;4231521;28;20411;-82
2023/10/17 10:04:56;;;;;;;3.38;0.95;;;18.70;99.90;;;;;;4231649;28;20453;-83
2023/10/17 10:07:37;;;;;;;4.97;1.10;;;18.80;99.90;;;;;;4231357;28;20087;-83
2023/10/17 10:09:37;;;;;;;3.53;0.90;;;18.90;99.90;;;;;;4162751;28;20049;-83
2023/10/17 10:11:53;;;;;;;2.28;0.75;;;18.60;99.90;;;;;;4162898;28;20042;-81
2023/10/17 10:14:11;;;;;;;2.95;0.60;;;18.50;97.90;;;;;;4150574;28;20128;-83
2023/10/17 10:16:12;;;;;;;3.90;0.80;;;18.60;99.90;;;;;;4213694;28;20094;-84
2023/10/17 10:18:14;;;;;;;2.25;0.73;;;18.60;99.90;;;;;;4196809;28;20071;-85
2023/10/17 10:20:16;;;;;;;2.92;0.85;;;18.40;99.90;;;;;;4232377;27;20515;-85
2023/10/17 10:22:17;;;;;;;3.00;1.45;;;18.10;99.90;;;;;;4241902;27;20092;-84
2023/10/17 10:24:22;;;;;;;4.18;1.00;;;18.00;99.90;;;;;;4221088;28;20111;-85
2023/10/17 10:26:23;;;;;;;3.65;1.00;;;17.90;99.90;;;;;;4235243;27;20093;-85
2023/10/17 10:28:29;;;;;;;11.82;0.80;;;18.10;99.90;;;;;;4232647;28;20071;-85
2023/10/17 10:30:36;;;;;;;3.90;1.00;;;18.20;99.90;;;;;;4248134;27;20708;-85
2023/10/17 10:32:39;;;;;;;3.25;0.85;;;18.20;99.00;;;;;;4247420;27;20632;-85
2023/10/17 10:34:39;;;;;;;2.25;1.00;;;18.00;99.20;;;;;;4240798;27;20039;-85
2023/10/17 10:36:40;;;;;;;1.65;0.80;;;17.80;99.00;;;;;;4242667;27;20089;-85
2023/10/17 10:38:40;;;;;;;4.10;0.98;;;17.80;99.30;;;;;;4231525;28;20043;-85
2023/10/17 10:40:41;;;;;;;2.38;1.13;;;18.00;99.90;;;;;;4236359;27;20023;-85
2023/10/17 10:42:50;;;;;;;5.35;1.02;;;18.20;99.90;;;;;;4230038;28;20039;-85
2023/10/17 10:44:52;;;;;;;3.33;0.80;;;18.30;98.30;;;;;;4248205;27;20204;-85
2023/10/17 10:46:56;;;;;;;2.67;0.90;;;18.30;99.50;;;;;;4238816;28;20092;-85
2023/10/17 10:48:57;;;;;;;4.78;0.98;;;18.20;99.00;;;;;;4231435;28;20071;-85
2023/10/17 10:51:00;;;;;;;3.65;0.80;;;18.30;99.60;;;;;;4212874;28;20055;-85
2023/10/17 10:53:03;;;;;;;2.88;0.70;;;18.50;99.60;;;;;;4219303;28;20039;-83
2023/10/17 10:55:04;;;;;;;2.65;0.77;;;18.70;99.20;;;;;;4247825;28;20035;-82
2023/10/17 10:57:05;;;;;;;6.40;1.98;;;18.70;98.70;;;;;;4248536;28;20031;-81
2023/10/17 10:59:06;;;;;;;7.28;0.90;;;18.90;98.50;;;;;;4247919;28;20107;-82
2023/10/17 11:01:07;;;;;;;2.03;0.68;;;19.10;98.60;;;;;;4247908;28;20050;-82
2023/10/17 11:03:08;;;;;;;4.22;1.50;;;19.30;98.50;;;;;;4247910;28;20491;-81
2023/10/17 11:05:13;;;;;;;3.65;0.73;;;19.30;97.40;;;;;;4247888;28;20047;-82
2023/10/17 11:07:21;;;;;;;3.13;0.98;;;19.40;97.80;;;;;;4247359;28;20057;-82
2023/10/17 11:09:25;;;;;;;3.40;0.95;;;19.50;96.90;;;;;;4247904;28;20070;-82
2023/10/17 11:11:25;;;;;;;2.40;0.98;;;19.50;96.30;;;;;;4247248;28;20408;-81
2023/10/17 11:13:34;;;;;;;2.58;0.75;;;19.50;97.10;;;;;;4247539;28;20043;-82
2023/10/17 11:15:39;;;;;;;3.30;0.80;;;19.60;96.20;;;;;;4229041;28;20135;-82
2023/10/17 11:17:43;;;;;;;3.10;0.80;;;19.80;97.70;;;;;;4247514;28;20088;-80
2023/10/17 11:19:45;;;;;;;2.00;0.60;;;19.50;96.50;;;;;;4247900;28;20107;-82
2023/10/17 11:21:55;;;;;;;2.53;0.50;;;19.50;96.70;;;;;;4247897;28;20031;-82
2023/10/17 11:24:00;;;;;;;2.83;0.70;;;19.40;95.30;;;;;;4234065;28;20047;-82
2023/10/17 11:26:12;;;;;;;3.30;0.73;;;19.60;96.50;;;;;;4230834;28;20073;-82
2023/10/17 11:28:16;;;;;;;7.13;1.70;;;19.80;96.50;;;;;;4230723;28;20071;-81
2023/10/17 11:30:19;;;;;;;2.70;0.98;;;19.80;96.30;;;;;;4242655;28;20130;-82
2023/10/17 11:32:21;;;;;;;2.00;0.50;;;20.00;96.40;;;;;;4247735;28;20462;-82
2023/10/17 11:34:31;;;;;;;3.08;0.65;;;20.20;96.10;;;;;;4229184;28;20588;-82
2023/10/17 11:36:46;;;;;;;2.67;0.60;;;20.30;95.20;;;;;;4247752;28;20039;-82
2023/10/17 11:38:57;;;;;;;2.50;0.50;;;20.60;95.90;;;;;;4228882;28;20047;-82
2023/10/17 11:41:00;;;;;;;1.95;0.52;;;20.60;95.00;;;;;;4247700;28;20058;-81
2023/10/17 11:43:18;;;;;;;4.47;0.57;;;20.50;95.20;;;;;;4248391;27;20039;-82
2023/10/17 11:45:33;;;;;;;1.60;0.50;;;20.50;92.10;;;;;;4232745;28;20047;-82
2023/10/17 11:47:37;;;;;;;2.33;0.70;;;20.50;95.20;;;;;;4250407;27;20076;-82
2023/10/17 11:49:39;;;;;;;1.05;0.60;;;20.50;94.70;;;;;;4250520;27;20058;-82
2023/10/17 11:51:40;;;;;;;4.65;1.08;;;20.60;94.70;;;;;;4250629;27;20479;-81
2023/10/17 11:54:08;;;;;;;4.60;0.73;;;20.60;94.10;;;;;;4250644;27;20122;-82
2023/10/17 11:56:09;;;;;;;6.20;0.65;;;20.70;92.30;;;;;;4250687;27;20039;-82
2023/10/17 11:58:11;;;;;;;2.30;0.60;;;20.70;94.10;;;;;;4250148;27;20070;-81
2023/10/17 12:02:18;;;;;;;5.82;2.15;;;20.70;93.00;;;;;;4250419;27;20095;-82
2023/10/17 12:04:19;;;;;;;0.95;0.55;;;20.50;92.20;;;;;;4250253;27;20130;-81
2023/10/17 12:06:21;;;;;;;5.88;2.83;;;20.30;92.20;;;;;;4232085;28;20065;-82
2023/10/17 12:08:22;;;;;;;3.72;1.33;;;20.30;92.20;;;;;;4250726;27;20039;-81
2023/10/17 12:10:28;;;;;;;1.73;0.55;;;20.20;91.90;;;;;;4250656;27;20044;-82
2023/10/17 12:12:30;;;;;;;2.08;0.75;;;20.30;92.10;;;;;;4249781;27;20048;-81
2023/10/17 12:14:31;;;;;;;1.80;0.63;;;20.50;92.40;;;;;;4231774;28;20861;-82
2023/10/17 12:16:33;;;;;;;4.75;0.90;;;20.60;92.30;;;;;;4250221;27;20103;-82
2023/10/17 12:18:40;;;;;;;3.10;1.85;;;20.90;92.50;;;;;;4250223;27;20043;-82
2023/10/17 12:20:42;;;;;;;4.70;0.80;;;21.10;91.00;;;;;;4231800;28;20380;-82
2023/10/17 12:22:43;;;;;;;5.88;0.50;;;;;;;;;;4250132;27;20047;-82
2023/10/17 12:24:46;;;;;;;4.00;0.70;;;;;;;;;;4250173;27;20070;-82
2023/10/17 12:26:49;;;;;;;1.52;0.50;;;21.50;92.70;;;;;;4249819;27;20126;-80
2023/10/17 12:28:50;;;;;;;2.50;0.55;;;22.00;92.10;;;;;;4250116;27;20047;-81
2023/10/17 12:30:50;;;;;;;3.70;0.52;;;22.00;91.30;;;;;;4250173;27;20065;-81
2023/10/17 12:32:51;;;;;;;4.43;1.00;;;22.10;91.40;;;;;;4243472;27;20039;-81
2023/10/17 12:34:54;;;;;;;1.80;0.75;;;22.40;92.30;;;;;;4237883;27;20122;-81
2023/10/17 12:36:55;;;;;;;1.13;0.55;;;22.70;91.60;;;;;;4233336;27;20043;-81
2023/10/17 12:38:57;;;;;;;2.92;0.70;;;22.70;90.10;;;;;;4248399;27;20039;-80
2023/10/17 12:40:58;;;;;;;3.90;0.70;;;;;;;;;;4249468;27;20046;-80
2023/10/17 12:43:01;;;;;;;4.70;0.70;;;;;;;;;;4249590;27;20509;-80
2023/10/17 12:45:02;;;;;;;4.45;1.10;;;;;;;;;;4231291;28;20032;-80
2023/10/17 12:47:03;;;;;;;1.48;0.80;;;;;;;;;;4249689;27;20047;-80
2023/10/17 12:49:06;;;;;;;3.42;0.60;;;;;;;;;;4249386;27;20050;-83
2023/10/17 12:51:13;;;;;;;3.25;0.95;;;;;;;;;;4242053;27;20059;-82
2023/10/17 12:53:14;;;;;;;5.28;0.90;;;;;;;;;;4241154;27;20035;-82
2023/10/17 12:55:15;;;;;;;2.45;0.57;;;;;;;;;;4247282;27;20094;-84
2023/10/17 12:57:16;;;;;;;4.13;1.00;;;;;;;;;;4247033;27;20035;-83
2023/10/17 12:59:18;;;;;;;1.73;0.75;;;;;;;;;;4235736;27;20115;-84
2023/10/17 13:01:21;;;;;;;3.90;1.08;;;22.60;89.90;;;;;;4248457;27;20896;-83